Hillsgrove, Pennsylvania
Current Conditions -  °F | °C
As of 11:09 AM on Monday 22 Dec 2014 (Local Time) from KIPT Reporting Station
Broken Clouds Broken Clouds  
Wind Chill: 25°   Ceiling: 1800
Heat Index: 32°   Visibility: 10mi
Dew Point: 24°   Wind: 8mph
Humidity: 73%   Direction: 80°E
Pressure: 30.27"   Gusts: NA
Location:  41.44°N, 76.71°W
Report Text: KIPT 221609Z 08007KT 10SM BKN018 00/M04 A3027 RMK AO2 T00001044
Loading
Personal Weather Stations






























Interactive Weather Map New forecast layout! Learn more

10-Day Weather Forecast

Advertisements
Track Severe Weather on mobile